sensor_id;sensor_type;location;lat;lon;timestamp;P1;durP1;ratioP1;P2;durP2;ratioP2
20026;SDS011;10174;42.688;23.344;2024-01-06T00:00:34;130.88;;;50.45;;
20026;SDS011;10174;42.688;23.344;2024-01-06T00:03:00;137.27;;;52.88;;
20026;SDS011;10174;42.688;23.344;2024-01-06T00:05:26;120.13;;;50.35;;
20026;SDS011;10174;42.688;23.344;2024-01-06T00:07:51;124.57;;;49.13;;
20026;SDS011;10174;42.688;23.344;2024-01-06T00:10:17;120.90;;;51.00;;
20026;SDS011;10174;42.688;23.344;2024-01-06T00:12:42;117.03;;;49.67;;
20026;SDS011;10174;42.688;23.344;2024-01-06T00:15:08;130.65;;;50.85;;
20026;SDS011;10174;42.688;23.344;2024-01-06T00:17:34;136.27;;;52.60;;
20026;SDS011;10174;42.688;23.344;2024-01-06T00:19:59;130.38;;;54.08;;
20026;SDS011;10174;42.688;23.344;2024-01-06T00:22:27;145.43;;;52.88;;
20026;SDS011;10174;42.688;23.344;2024-01-06T00:24:52;144.63;;;51.70;;
20026;SDS011;10174;42.688;23.344;2024-01-06T00:27:18;141.90;;;53.40;;
20026;SDS011;10174;42.688;23.344;2024-01-06T00:29:43;124.68;;;52.78;;
20026;SDS011;10174;42.688;23.344;2024-01-06T00:32:09;118.95;;;51.53;;
20026;SDS011;10174;42.688;23.344;2024-01-06T00:34:34;128.93;;;51.97;;
20026;SDS011;10174;42.688;23.344;2024-01-06T00:37:00;139.98;;;53.80;;
20026;SDS011;10174;42.688;23.344;2024-01-06T00:39:25;142.75;;;54.13;;
20026;SDS011;10174;42.688;23.344;2024-01-06T00:41:51;141.20;;;52.90;;
20026;SDS011;10174;42.688;23.344;2024-01-06T00:44:16;128.63;;;54.30;;
20026;SDS011;10174;42.688;23.344;2024-01-06T00:46:41;124.68;;;53.17;;
20026;SDS011;10174;42.688;23.344;2024-01-06T00:49:07;133.05;;;54.95;;
20026;SDS011;10174;42.688;23.344;2024-01-06T00:51:32;134.05;;;53.83;;
20026;SDS011;10174;42.688;23.344;2024-01-06T00:53:58;130.85;;;55.47;;
20026;SDS011;10174;42.688;23.344;2024-01-06T00:56:23;142.05;;;55.05;;
20026;SDS011;10174;42.688;23.344;2024-01-06T00:58:49;133.48;;;54.83;;
20026;SDS011;10174;42.688;23.344;2024-01-06T01:01:14;148.38;;;55.40;;
20026;SDS011;10174;42.688;23.344;2024-01-06T01:03:40;119.57;;;53.30;;
20026;SDS011;10174;42.688;23.344;2024-01-06T01:06:05;129.60;;;54.72;;
20026;SDS011;10174;42.688;23.344;2024-01-06T01:08:31;130.77;;;56.33;;
20026;SDS011;10174;42.688;23.344;2024-01-06T01:10:57;139.93;;;57.53;;
20026;SDS011;10174;42.688;23.344;2024-01-06T01:13:22;140.82;;;59.47;;
20026;SDS011;10174;42.688;23.344;2024-01-06T01:15:48;139.98;;;58.50;;
20026;SDS011;10174;42.688;23.344;2024-01-06T01:18:14;143.32;;;60.40;;
20026;SDS011;10174;42.688;23.344;2024-01-06T01:20:39;140.02;;;58.50;;
20026;SDS011;10174;42.688;23.344;2024-01-06T01:23:07;132.75;;;57.58;;
20026;SDS011;10174;42.688;23.344;2024-01-06T01:25:32;145.30;;;58.47;;
20026;SDS011;10174;42.688;23.344;2024-01-06T01:27:58;135.45;;;57.70;;
20026;SDS011;10174;42.688;23.344;2024-01-06T01:30:23;131.55;;;57.28;;
20026;SDS011;10174;42.688;23.344;2024-01-06T01:32:49;152.50;;;59.50;;
20026;SDS011;10174;42.688;23.344;2024-01-06T01:35:14;139.63;;;58.95;;
20026;SDS011;10174;42.688;23.344;2024-01-06T01:37:40;144.48;;;60.67;;
20026;SDS011;10174;42.688;23.344;2024-01-06T01:40:05;154.02;;;62.97;;
20026;SDS011;10174;42.688;23.344;2024-01-06T01:42:32;149.75;;;61.10;;
20026;SDS011;10174;42.688;23.344;2024-01-06T01:44:58;140.38;;;60.35;;
20026;SDS011;10174;42.688;23.344;2024-01-06T01:47:23;152.70;;;60.58;;
20026;SDS011;10174;42.688;23.344;2024-01-06T01:49:49;140.00;;;60.92;;
20026;SDS011;10174;42.688;23.344;2024-01-06T01:52:15;138.50;;;58.45;;
20026;SDS011;10174;42.688;23.344;2024-01-06T01:54:41;158.30;;;60.28;;
20026;SDS011;10174;42.688;23.344;2024-01-06T01:57:08;144.60;;;59.10;;
20026;SDS011;10174;42.688;23.344;2024-01-06T01:59:35;140.77;;;60.15;;
20026;SDS011;10174;42.688;23.344;2024-01-06T02:02:01;143.65;;;60.38;;
20026;SDS011;10174;42.688;23.344;2024-01-06T02:04:27;142.98;;;59.63;;
20026;SDS011;10174;42.688;23.344;2024-01-06T02:06:53;139.60;;;64.47;;
20026;SDS011;10174;42.688;23.344;2024-01-06T02:09:18;144.98;;;61.33;;
20026;SDS011;10174;42.688;23.344;2024-01-06T02:11:44;133.13;;;59.60;;
20026;SDS011;10174;42.688;23.344;2024-01-06T02:14:10;132.50;;;58.65;;
20026;SDS011;10174;42.688;23.344;2024-01-06T02:16:35;139.07;;;59.85;;
20026;SDS011;10174;42.688;23.344;2024-01-06T02:19:01;143.27;;;60.60;;
20026;SDS011;10174;42.688;23.344;2024-01-06T02:21:27;136.65;;;57.83;;
20026;SDS011;10174;42.688;23.344;2024-01-06T02:23:53;128.90;;;58.72;;
20026;SDS011;10174;42.688;23.344;2024-01-06T02:26:19;137.68;;;60.30;;
20026;SDS011;10174;42.688;23.344;2024-01-06T02:28:44;141.60;;;57.22;;
20026;SDS011;10174;42.688;23.344;2024-01-06T02:31:12;132.55;;;54.97;;
20026;SDS011;10174;42.688;23.344;2024-01-06T02:33:38;139.35;;;60.53;;
20026;SDS011;10174;42.688;23.344;2024-01-06T02:36:04;131.30;;;57.15;;
20026;SDS011;10174;42.688;23.344;2024-01-06T02:38:29;130.52;;;56.85;;
20026;SDS011;10174;42.688;23.344;2024-01-06T02:40:55;135.40;;;57.38;;
20026;SDS011;10174;42.688;23.344;2024-01-06T02:43:20;141.20;;;56.72;;
20026;SDS011;10174;42.688;23.344;2024-01-06T02:45:48;151.65;;;59.25;;
20026;SDS011;10174;42.688;23.344;2024-01-06T02:48:13;131.20;;;56.55;;
20026;SDS011;10174;42.688;23.344;2024-01-06T02:50:39;135.70;;;55.22;;
20026;SDS011;10174;42.688;23.344;2024-01-06T02:53:04;129.18;;;53.83;;
20026;SDS011;10174;42.688;23.344;2024-01-06T02:55:29;124.68;;;54.00;;
20026;SDS011;10174;42.688;23.344;2024-01-06T02:57:55;118.57;;;54.10;;
20026;SDS011;10174;42.688;23.344;2024-01-06T03:00:20;122.13;;;52.53;;
20026;SDS011;10174;42.688;23.344;2024-01-06T03:02:46;121.10;;;53.88;;
20026;SDS011;10174;42.688;23.344;2024-01-06T03:05:11;118.95;;;50.60;;
20026;SDS011;10174;42.688;23.344;2024-01-06T03:07:37;130.00;;;53.53;;
20026;SDS011;10174;42.688;23.344;2024-01-06T03:10:02;117.95;;;50.75;;
20026;SDS011;10174;42.688;23.344;2024-01-06T03:12:28;110.20;;;48.72;;
20026;SDS011;10174;42.688;23.344;2024-01-06T03:14:53;116.25;;;49.13;;
20026;SDS011;10174;42.688;23.344;2024-01-06T03:17:19;115.25;;;48.15;;
20026;SDS011;10174;42.688;23.344;2024-01-06T03:19:44;117.18;;;45.80;;
20026;SDS011;10174;42.688;23.344;2024-01-06T03:22:10;116.75;;;47.17;;
20026;SDS011;10174;42.688;23.344;2024-01-06T03:24:35;117.20;;;46.85;;
20026;SDS011;10174;42.688;23.344;2024-01-06T03:27:01;107.35;;;44.55;;
20026;SDS011;10174;42.688;23.344;2024-01-06T03:29:26;112.03;;;45.25;;
20026;SDS011;10174;42.688;23.344;2024-01-06T03:31:52;100.40;;;44.42;;
20026;SDS011;10174;42.688;23.344;2024-01-06T03:34:17;102.50;;;45.38;;
20026;SDS011;10174;42.688;23.344;2024-01-06T03:36:43;101.22;;;42.97;;
20026;SDS011;10174;42.688;23.344;2024-01-06T03:39:08;95.20;;;41.58;;
20026;SDS011;10174;42.688;23.344;2024-01-06T03:41:35;93.95;;;42.30;;
20026;SDS011;10174;42.688;23.344;2024-01-06T03:44:01;100.35;;;43.42;;
20026;SDS011;10174;42.688;23.344;2024-01-06T03:46:26;91.30;;;40.65;;
20026;SDS011;10174;42.688;23.344;2024-01-06T03:48:52;97.43;;;42.47;;
20026;SDS011;10174;42.688;23.344;2024-01-06T03:51:17;92.38;;;42.22;;
20026;SDS011;10174;42.688;23.344;2024-01-06T03:53:43;95.90;;;40.58;;
20026;SDS011;10174;42.688;23.344;2024-01-06T03:56:08;92.65;;;40.25;;
20026;SDS011;10174;42.688;23.344;2024-01-06T03:58:34;100.32;;;41.67;;
20026;SDS011;10174;42.688;23.344;2024-01-06T04:01:00;94.05;;;39.70;;
20026;SDS011;10174;42.688;23.344;2024-01-06T04:03:25;98.38;;;41.67;;
20026;SDS011;10174;42.688;23.344;2024-01-06T04:05:51;94.70;;;38.60;;
20026;SDS011;10174;42.688;23.344;2024-01-06T04:08:17;79.00;;;35.10;;
20026;SDS011;10174;42.688;23.344;2024-01-06T04:10:43;81.18;;;33.65;;
20026;SDS011;10174;42.688;23.344;2024-01-06T04:13:08;88.75;;;36.92;;
20026;SDS011;10174;42.688;23.344;2024-01-06T04:15:34;78.53;;;35.42;;
20026;SDS011;10174;42.688;23.344;2024-01-06T04:18:02;78.25;;;33.13;;
20026;SDS011;10174;42.688;23.344;2024-01-06T04:20:29;72.32;;;32.08;;
20026;SDS011;10174;42.688;23.344;2024-01-06T04:22:55;71.25;;;32.15;;
20026;SDS011;10174;42.688;23.344;2024-01-06T04:25:20;89.10;;;33.53;;
20026;SDS011;10174;42.688;23.344;2024-01-06T04:27:46;72.28;;;30.90;;
20026;SDS011;10174;42.688;23.344;2024-01-06T04:30:13;72.45;;;28.70;;
20026;SDS011;10174;42.688;23.344;2024-01-06T04:32:39;72.30;;;29.10;;
20026;SDS011;10174;42.688;23.344;2024-01-06T04:35:05;65.78;;;28.08;;
20026;SDS011;10174;42.688;23.344;2024-01-06T04:37:31;74.00;;;28.48;;
20026;SDS011;10174;42.688;23.344;2024-01-06T04:39:56;61.85;;;27.98;;
20026;SDS011;10174;42.688;23.344;2024-01-06T04:42:22;56.10;;;26.52;;
20026;SDS011;10174;42.688;23.344;2024-01-06T04:44:48;61.33;;;26.35;;
20026;SDS011;10174;42.688;23.344;2024-01-06T04:47:14;52.00;;;24.65;;
20026;SDS011;10174;42.688;23.344;2024-01-06T04:49:40;62.95;;;24.85;;
20026;SDS011;10174;42.688;23.344;2024-01-06T04:52:05;63.55;;;25.77;;
20026;SDS011;10174;42.688;23.344;2024-01-06T04:54:31;67.20;;;27.02;;
20026;SDS011;10174;42.688;23.344;2024-01-06T04:56:57;66.47;;;27.80;;
20026;SDS011;10174;42.688;23.344;2024-01-06T04:59:23;73.85;;;30.10;;
20026;SDS011;10174;42.688;23.344;2024-01-06T05:01:50;70.32;;;30.08;;
20026;SDS011;10174;42.688;23.344;2024-01-06T05:04:17;70.80;;;26.52;;
20026;SDS011;10174;42.688;23.344;2024-01-06T05:06:43;55.78;;;25.02;;
20026;SDS011;10174;42.688;23.344;2024-01-06T05:09:08;82.70;;;36.17;;
20026;SDS011;10174;42.688;23.344;2024-01-06T05:11:34;91.00;;;38.72;;
20026;SDS011;10174;42.688;23.344;2024-01-06T05:13:59;105.55;;;42.88;;
20026;SDS011;10174;42.688;23.344;2024-01-06T05:16:25;89.85;;;38.55;;
20026;SDS011;10174;42.688;23.344;2024-01-06T05:18:50;97.88;;;39.67;;
20026;SDS011;10174;42.688;23.344;2024-01-06T05:21:16;81.88;;;31.90;;
20026;SDS011;10174;42.688;23.344;2024-01-06T05:23:41;97.57;;;40.60;;
20026;SDS011;10174;42.688;23.344;2024-01-06T05:26:07;85.82;;;30.90;;
20026;SDS011;10174;42.688;23.344;2024-01-06T05:28:32;79.93;;;34.92;;
20026;SDS011;10174;42.688;23.344;2024-01-06T05:30:58;63.85;;;23.88;;
20026;SDS011;10174;42.688;23.344;2024-01-06T05:33:23;60.97;;;25.75;;
20026;SDS011;10174;42.688;23.344;2024-01-06T05:35:49;66.85;;;24.33;;
20026;SDS011;10174;42.688;23.344;2024-01-06T05:38:14;60.58;;;24.58;;
20026;SDS011;10174;42.688;23.344;2024-01-06T05:40:40;53.60;;;21.33;;
20026;SDS011;10174;42.688;23.344;2024-01-06T05:43:05;54.10;;;22.45;;
20026;SDS011;10174;42.688;23.344;2024-01-06T05:45:31;51.35;;;21.40;;
20026;SDS011;10174;42.688;23.344;2024-01-06T05:47:57;46.28;;;18.67;;
20026;SDS011;10174;42.688;23.344;2024-01-06T05:50:22;39.75;;;19.40;;
20026;SDS011;10174;42.688;23.344;2024-01-06T05:52:48;41.00;;;17.08;;
20026;SDS011;10174;42.688;23.344;2024-01-06T05:55:14;48.00;;;19.38;;
20026;SDS011;10174;42.688;23.344;2024-01-06T05:57:39;47.63;;;19.48;;
20026;SDS011;10174;42.688;23.344;2024-01-06T06:00:08;40.33;;;17.70;;
20026;SDS011;10174;42.688;23.344;2024-01-06T06:02:35;45.95;;;15.63;;
20026;SDS011;10174;42.688;23.344;2024-01-06T06:05:01;41.13;;;16.65;;
20026;SDS011;10174;42.688;23.344;2024-01-06T06:07:26;35.65;;;14.98;;
20026;SDS011;10174;42.688;23.344;2024-01-06T06:09:52;33.38;;;15.07;;
20026;SDS011;10174;42.688;23.344;2024-01-06T06:12:18;39.03;;;13.20;;
20026;SDS011;10174;42.688;23.344;2024-01-06T06:14:43;53.88;;;15.13;;
20026;SDS011;10174;42.688;23.344;2024-01-06T06:17:09;38.22;;;15.27;;
20026;SDS011;10174;42.688;23.344;2024-01-06T06:19:34;39.88;;;14.90;;
20026;SDS011;10174;42.688;23.344;2024-01-06T06:22:00;33.80;;;13.93;;
20026;SDS011;10174;42.688;23.344;2024-01-06T06:24:25;37.70;;;13.20;;
20026;SDS011;10174;42.688;23.344;2024-01-06T06:26:51;32.10;;;12.23;;
20026;SDS011;10174;42.688;23.344;2024-01-06T06:29:16;31.90;;;13.00;;
20026;SDS011;10174;42.688;23.344;2024-01-06T06:31:42;31.33;;;12.32;;
20026;SDS011;10174;42.688;23.344;2024-01-06T06:34:11;33.22;;;11.75;;
20026;SDS011;10174;42.688;23.344;2024-01-06T06:36:37;26.40;;;10.48;;
20026;SDS011;10174;42.688;23.344;2024-01-06T06:39:03;26.73;;;11.13;;
20026;SDS011;10174;42.688;23.344;2024-01-06T06:41:29;34.17;;;11.80;;
20026;SDS011;10174;42.688;23.344;2024-01-06T06:43:57;44.60;;;12.45;;
20026;SDS011;10174;42.688;23.344;2024-01-06T06:46:22;31.73;;;11.52;;
20026;SDS011;10174;42.688;23.344;2024-01-06T06:48:48;34.55;;;13.10;;
20026;SDS011;10174;42.688;23.344;2024-01-06T06:51:15;31.63;;;12.07;;
20026;SDS011;10174;42.688;23.344;2024-01-06T06:53:41;45.40;;;12.20;;
20026;SDS011;10174;42.688;23.344;2024-01-06T06:56:06;35.72;;;11.18;;
20026;SDS011;10174;42.688;23.344;2024-01-06T06:58:31;25.40;;;10.10;;
20026;SDS011;10174;42.688;23.344;2024-01-06T07:00:58;30.88;;;11.48;;
20026;SDS011;10174;42.688;23.344;2024-01-06T07:03:23;35.85;;;11.02;;
20026;SDS011;10174;42.688;23.344;2024-01-06T07:05:49;31.92;;;12.30;;
20026;SDS011;10174;42.688;23.344;2024-01-06T07:08:14;28.00;;;10.85;;
20026;SDS011;10174;42.688;23.344;2024-01-06T07:10:40;24.98;;;10.15;;
20026;SDS011;10174;42.688;23.344;2024-01-06T07:13:06;28.58;;;10.35;;
20026;SDS011;10174;42.688;23.344;2024-01-06T07:15:31;34.58;;;10.45;;
20026;SDS011;10174;42.688;23.344;2024-01-06T07:17:57;36.90;;;10.77;;
20026;SDS011;10174;42.688;23.344;2024-01-06T07:20:22;34.45;;;11.23;;
20026;SDS011;10174;42.688;23.344;2024-01-06T07:22:48;27.55;;;10.68;;
20026;SDS011;10174;42.688;23.344;2024-01-06T07:25:13;25.95;;;9.90;;
20026;SDS011;10174;42.688;23.344;2024-01-06T07:27:39;25.00;;;10.82;;
20026;SDS011;10174;42.688;23.344;2024-01-06T07:30:04;28.15;;;11.65;;
20026;SDS011;10174;42.688;23.344;2024-01-06T07:32:34;31.42;;;10.48;;
20026;SDS011;10174;42.688;23.344;2024-01-06T07:35:00;46.65;;;11.45;;
20026;SDS011;10174;42.688;23.344;2024-01-06T07:37:25;36.50;;;11.85;;
20026;SDS011;10174;42.688;23.344;2024-01-06T07:39:51;37.45;;;11.45;;
20026;SDS011;10174;42.688;23.344;2024-01-06T07:42:16;35.30;;;10.88;;
20026;SDS011;10174;42.688;23.344;2024-01-06T07:44:42;39.38;;;10.73;;
20026;SDS011;10174;42.688;23.344;2024-01-06T07:47:09;30.52;;;10.88;;
20026;SDS011;10174;42.688;23.344;2024-01-06T07:49:35;35.88;;;12.57;;
20026;SDS011;10174;42.688;23.344;2024-01-06T07:52:00;35.92;;;10.70;;
20026;SDS011;10174;42.688;23.344;2024-01-06T07:54:26;35.15;;;12.13;;
20026;SDS011;10174;42.688;23.344;2024-01-06T07:56:51;27.95;;;11.68;;
20026;SDS011;10174;42.688;23.344;2024-01-06T07:59:17;42.95;;;11.82;;
20026;SDS011;10174;42.688;23.344;2024-01-06T08:01:43;36.00;;;11.75;;
20026;SDS011;10174;42.688;23.344;2024-01-06T08:04:08;35.22;;;12.50;;
20026;SDS011;10174;42.688;23.344;2024-01-06T08:06:34;28.15;;;10.75;;
20026;SDS011;10174;42.688;23.344;2024-01-06T08:09:00;29.95;;;10.48;;
20026;SDS011;10174;42.688;23.344;2024-01-06T08:11:26;46.28;;;12.70;;
20026;SDS011;10174;42.688;23.344;2024-01-06T08:13:52;38.97;;;11.77;;
20026;SDS011;10174;42.688;23.344;2024-01-06T08:16:17;29.13;;;10.98;;
20026;SDS011;10174;42.688;23.344;2024-01-06T08:18:43;37.47;;;10.75;;
20026;SDS011;10174;42.688;23.344;2024-01-06T08:21:10;45.17;;;16.58;;
20026;SDS011;10174;42.688;23.344;2024-01-06T08:23:35;31.38;;;12.43;;
20026;SDS011;10174;42.688;23.344;2024-01-06T08:26:01;52.85;;;17.48;;
20026;SDS011;10174;42.688;23.344;2024-01-06T08:28:27;62.33;;;26.58;;
20026;SDS011;10174;42.688;23.344;2024-01-06T08:30:52;109.35;;;43.70;;
20026;SDS011;10174;42.688;23.344;2024-01-06T08:33:18;93.47;;;39.70;;
20026;SDS011;10174;42.688;23.344;2024-01-06T08:35:44;117.53;;;48.47;;
20026;SDS011;10174;42.688;23.344;2024-01-06T08:38:09;106.60;;;47.38;;
20026;SDS011;10174;42.688;23.344;2024-01-06T08:40:35;113.20;;;47.50;;
20026;SDS011;10174;42.688;23.344;2024-01-06T08:43:01;98.03;;;43.50;;
20026;SDS011;10174;42.688;23.344;2024-01-06T08:45:27;108.30;;;46.08;;
20026;SDS011;10174;42.688;23.344;2024-01-06T08:47:52;106.10;;;47.97;;
20026;SDS011;10174;42.688;23.344;2024-01-06T08:50:18;125.22;;;51.90;;
20026;SDS011;10174;42.688;23.344;2024-01-06T08:52:43;114.97;;;48.45;;
20026;SDS011;10174;42.688;23.344;2024-01-06T08:55:09;100.03;;;45.85;;
20026;SDS011;10174;42.688;23.344;2024-01-06T08:57:34;93.28;;;41.92;;
20026;SDS011;10174;42.688;23.344;2024-01-06T09:00:00;90.93;;;40.67;;
20026;SDS011;10174;42.688;23.344;2024-01-06T09:02:25;91.30;;;40.88;;
20026;SDS011;10174;42.688;23.344;2024-01-06T09:04:51;86.35;;;38.00;;
20026;SDS011;10174;42.688;23.344;2024-01-06T09:07:16;82.80;;;36.40;;
20026;SDS011;10174;42.688;23.344;2024-01-06T09:09:42;70.30;;;31.52;;
20026;SDS011;10174;42.688;23.344;2024-01-06T09:12:08;83.22;;;34.95;;
20026;SDS011;10174;42.688;23.344;2024-01-06T09:14:34;72.32;;;32.75;;
20026;SDS011;10174;42.688;23.344;2024-01-06T09:16:59;84.63;;;32.67;;
20026;SDS011;10174;42.688;23.344;2024-01-06T09:19:25;69.97;;;32.15;;
20026;SDS011;10174;42.688;23.344;2024-01-06T09:21:53;71.10;;;30.65;;
20026;SDS011;10174;42.688;23.344;2024-01-06T09:24:19;61.10;;;26.67;;
20026;SDS011;10174;42.688;23.344;2024-01-06T09:26:44;70.28;;;28.88;;
20026;SDS011;10174;42.688;23.344;2024-01-06T09:29:10;62.90;;;26.00;;
20026;SDS011;10174;42.688;23.344;2024-01-06T09:31:35;69.35;;;29.92;;
20026;SDS011;10174;42.688;23.344;2024-01-06T09:34:01;54.33;;;24.70;;
20026;SDS011;10174;42.688;23.344;2024-01-06T09:36:27;64.35;;;28.10;;
20026;SDS011;10174;42.688;23.344;2024-01-06T09:38:53;75.18;;;29.58;;
20026;SDS011;10174;42.688;23.344;2024-01-06T09:41:18;63.00;;;29.13;;
20026;SDS011;10174;42.688;23.344;2024-01-06T09:43:45;58.00;;;28.52;;
20026;SDS011;10174;42.688;23.344;2024-01-06T09:46:21;56.97;;;24.02;;
20026;SDS011;10174;42.688;23.344;2024-01-06T09:48:53;80.43;;;28.70;;
20026;SDS011;10174;42.688;23.344;2024-01-06T09:51:20;70.60;;;27.95;;
20026;SDS011;10174;42.688;23.344;2024-01-06T09:53:57;56.25;;;26.67;;
20026;SDS011;10174;42.688;23.344;2024-01-06T09:56:27;58.25;;;26.95;;
20026;SDS011;10174;42.688;23.344;2024-01-06T09:58:54;65.55;;;27.73;;
20026;SDS011;10174;42.688;23.344;2024-01-06T10:01:20;56.72;;;23.65;;
20026;SDS011;10174;42.688;23.344;2024-01-06T10:03:46;50.55;;;23.83;;
20026;SDS011;10174;42.688;23.344;2024-01-06T10:06:15;52.22;;;23.23;;
20026;SDS011;10174;42.688;23.344;2024-01-06T10:08:44;55.13;;;24.77;;
20026;SDS011;10174;42.688;23.344;2024-01-06T10:11:13;66.55;;;24.10;;
20026;SDS011;10174;42.688;23.344;2024-01-06T10:13:39;72.97;;;26.40;;
20026;SDS011;10174;42.688;23.344;2024-01-06T10:16:07;65.97;;;27.40;;
20026;SDS011;10174;42.688;23.344;2024-01-06T10:18:33;64.60;;;26.00;;
20026;SDS011;10174;42.688;23.344;2024-01-06T10:21:03;66.93;;;25.45;;
20026;SDS011;10174;42.688;23.344;2024-01-06T10:23:32;56.72;;;24.88;;
20026;SDS011;10174;42.688;23.344;2024-01-06T10:25:58;49.65;;;21.23;;
20026;SDS011;10174;42.688;23.344;2024-01-06T10:28:24;43.92;;;18.83;;
20026;SDS011;10174;42.688;23.344;2024-01-06T10:30:53;48.90;;;22.08;;
20026;SDS011;10174;42.688;23.344;2024-01-06T10:33:20;54.10;;;21.08;;
20026;SDS011;10174;42.688;23.344;2024-01-06T10:35:46;40.10;;;19.98;;
20026;SDS011;10174;42.688;23.344;2024-01-06T10:38:12;60.08;;;27.63;;
20026;SDS011;10174;42.688;23.344;2024-01-06T10:40:47;41.92;;;18.50;;
20026;SDS011;10174;42.688;23.344;2024-01-06T10:43:22;40.95;;;18.45;;
20026;SDS011;10174;42.688;23.344;2024-01-06T10:45:50;47.25;;;20.48;;
20026;SDS011;10174;42.688;23.344;2024-01-06T10:48:18;59.83;;;19.55;;
20026;SDS011;10174;42.688;23.344;2024-01-06T10:50:45;61.83;;;24.52;;
20026;SDS011;10174;42.688;23.344;2024-01-06T10:53:12;44.03;;;20.88;;
20026;SDS011;10174;42.688;23.344;2024-01-06T10:55:40;48.85;;;20.55;;
20026;SDS011;10174;42.688;23.344;2024-01-06T10:58:06;51.25;;;20.88;;
20026;SDS011;10174;42.688;23.344;2024-01-06T11:00:33;43.70;;;20.48;;
20026;SDS011;10174;42.688;23.344;2024-01-06T11:02:59;51.85;;;20.65;;
20026;SDS011;10174;42.688;23.344;2024-01-06T11:05:25;80.95;;;29.77;;
20026;SDS011;10174;42.688;23.344;2024-01-06T11:07:53;45.90;;;21.80;;
20026;SDS011;10174;42.688;23.344;2024-01-06T11:10:24;46.55;;;20.33;;
20026;SDS011;10174;42.688;23.344;2024-01-06T11:15:47;55.85;;;22.80;;
20026;SDS011;10174;42.688;23.344;2024-01-06T11:18:33;60.55;;;23.55;;
20026;SDS011;10174;42.688;23.344;2024-01-06T11:24:03;36.83;;;16.85;;
20026;SDS011;10174;42.688;23.344;2024-01-06T11:26:32;50.97;;;18.50;;
20026;SDS011;10174;42.688;23.344;2024-01-06T11:28:58;48.70;;;20.20;;
20026;SDS011;10174;42.688;23.344;2024-01-06T11:31:30;56.90;;;23.05;;
20026;SDS011;10174;42.688;23.344;2024-01-06T11:33:56;41.13;;;16.92;;
20026;SDS011;10174;42.688;23.344;2024-01-06T11:36:22;35.78;;;15.43;;
20026;SDS011;10174;42.688;23.344;2024-01-06T11:38:47;34.70;;;15.55;;
20026;SDS011;10174;42.688;23.344;2024-01-06T11:44:12;35.63;;;14.77;;
20026;SDS011;10174;42.688;23.344;2024-01-06T11:46:37;50.70;;;20.58;;
20026;SDS011;10174;42.688;23.344;2024-01-06T11:49:05;46.63;;;17.63;;
20026;SDS011;10174;42.688;23.344;2024-01-06T11:51:33;36.17;;;13.98;;
20026;SDS011;10174;42.688;23.344;2024-01-06T11:53:58;42.13;;;17.08;;
20026;SDS011;10174;42.688;23.344;2024-01-06T11:56:24;50.28;;;19.35;;
20026;SDS011;10174;42.688;23.344;2024-01-06T11:58:50;45.20;;;18.42;;
20026;SDS011;10174;42.688;23.344;2024-01-06T12:01:15;43.08;;;18.75;;
20026;SDS011;10174;42.688;23.344;2024-01-06T12:03:40;42.83;;;20.58;;
20026;SDS011;10174;42.688;23.344;2024-01-06T12:06:06;43.63;;;20.42;;
20026;SDS011;10174;42.688;23.344;2024-01-06T12:08:32;47.60;;;21.55;;
20026;SDS011;10174;42.688;23.344;2024-01-06T12:11:04;43.15;;;20.33;;
20026;SDS011;10174;42.688;23.344;2024-01-06T12:13:30;54.92;;;20.85;;
20026;SDS011;10174;42.688;23.344;2024-01-06T12:15:56;42.05;;;19.27;;
20026;SDS011;10174;42.688;23.344;2024-01-06T12:18:21;43.30;;;19.20;;
20026;SDS011;10174;42.688;23.344;2024-01-06T12:20:48;37.70;;;19.10;;
20026;SDS011;10174;42.688;23.344;2024-01-06T12:23:23;50.63;;;18.80;;
20026;SDS011;10174;42.688;23.344;2024-01-06T12:25:49;41.92;;;20.77;;
20026;SDS011;10174;42.688;23.344;2024-01-06T12:28:15;37.05;;;17.25;;
20026;SDS011;10174;42.688;23.344;2024-01-06T12:30:40;47.80;;;15.70;;
20026;SDS011;10174;42.688;23.344;2024-01-06T12:33:06;42.22;;;14.68;;
20026;SDS011;10174;42.688;23.344;2024-01-06T12:35:31;55.45;;;19.83;;
20026;SDS011;10174;42.688;23.344;2024-01-06T12:37:57;37.15;;;14.32;;
20026;SDS011;10174;42.688;23.344;2024-01-06T12:40:22;36.45;;;13.82;;
20026;SDS011;10174;42.688;23.344;2024-01-06T12:42:48;36.83;;;13.50;;
20026;SDS011;10174;42.688;23.344;2024-01-06T12:45:13;24.83;;;11.65;;
20026;SDS011;10174;42.688;23.344;2024-01-06T12:47:41;49.85;;;17.50;;
20026;SDS011;10174;42.688;23.344;2024-01-06T12:50:07;53.63;;;17.23;;
20026;SDS011;10174;42.688;23.344;2024-01-06T12:52:33;26.33;;;12.35;;
20026;SDS011;10174;42.688;23.344;2024-01-06T12:54:59;22.30;;;9.75;;
20026;SDS011;10174;42.688;23.344;2024-01-06T12:57:24;26.88;;;10.07;;
20026;SDS011;10174;42.688;23.344;2024-01-06T12:59:50;20.35;;;9.32;;
20026;SDS011;10174;42.688;23.344;2024-01-06T13:02:15;34.83;;;12.82;;
20026;SDS011;10174;42.688;23.344;2024-01-06T13:04:41;37.92;;;13.52;;
20026;SDS011;10174;42.688;23.344;2024-01-06T13:07:06;32.85;;;13.10;;
20026;SDS011;10174;42.688;23.344;2024-01-06T13:09:32;30.52;;;12.18;;
20026;SDS011;10174;42.688;23.344;2024-01-06T13:11:58;30.08;;;12.25;;
20026;SDS011;10174;42.688;23.344;2024-01-06T13:14:26;44.80;;;14.90;;
